Olden, TX (76466)

9:11 PM CDT on September 21, 2014 (GMT -0500)
MesoWest OLDEN TX US UPR | Change Station
CLOSE
Current Station
Personal Weather Station
Location: Olden, TX
Elevation: 1563 ft
Nearby Weather Stations

Elev 1563 ft 32.42 °N, 98.76 °W | Updated 1 hour ago

Mostly Cloudy
Mostly Cloudy
80.0 °F
Feels Like 80.0 °F
N
-
Wind Variable Wind from North

Today
High -- | Low -- °F
--% Chance of Precip.
Yesterday
High -- | Low -- °F
Precip. -- in
7:22 AM 7:32 PM
Waning Crescent, 4% visible
Pressure 30.08 in
Visibility 10.0 miles
Clouds Mostly Cloudy 8500 ft
Dew Point Not available.
Humidity Not available.
Rainfall -999.00 in
Snow Depth Not available.
UV 0 out of 12
Pollen 10.20 out of 12
Air Quality Not available.
Flu Activity Not available.
METAR KBKD 220155Z AUTO 13004KT 10SM BKN085 29/16 A3008 RMK AO2 T02850159

More Conditions Fewer Conditions

Pressure 30.08 in
Visibility 10.0 miles
Clouds Mostly Cloudy 8500 ft
Dew Point Not available.
Humidity Not available.
Rainfall -999.00 in
Snow Depth Not available.
UV 0 out of 12
Pollen 10.20 out of 12
Air Quality Not available.
Flu Activity Not available.
METAR KBKD 220155Z AUTO 13004KT 10SM BKN085 29/16 A3008 RMK AO2 T02850159

More Conditions Fewer Conditions

Nowcast | as of 7:13 PM CDT on September 21, 2014

A weak cold front continues to advance southward into North Texas this evening. A few thunderstorms associated with the front are located along the Red River...and will continue to move south into Texas. Brief heavy rain...lightning...and gusty winds will be possible with stronger cells. Additional showers and isolated storms are possible this evening...primarily north of Interstate 20. Elsewhere...skies will remain mostly clear with temperatures falling into the lower 80s over the next few hours. Winds will remain light and shift from southeasterly to northerly as the front continues to push southward across the area.

×

10-Day Weather Forecast

Almanac

Astronomy

Sep. 21, 2014 Rise Set
Actual Time 7:22 AM CDT 7:32 PM CDT
Civil Twilight 6:58 AM CDT 7:57 PM CDT
Nautical Twilight 6:29 AM CDT 8:26 PM CDT
Astronomical Twilight 6:00 AM CDT 8:54 PM CDT
Moon 5:04 AM CDT (9/21) 6:05 PM CDT (9/21)
Length of Visible Light 12h 59m
Length of Day
12h 10m
Tomorrow will be 1m 59s shorter.
Waning Crescent, 4% of the Moon is Illuminated
Today
Waning Crescent
Sep 24
New
Oct 1
First Quarter
Oct 8
Full
Oct 15
Last Quarter

Today's Extremes

State Highs State Lows

Community

WunderPhotos

Upload Photos

1,755,347 photos uploaded!

WunderBlogs® & News

Nearby

Snow Depth

Station Depth Elevation
No new snow has been reported.

Earthquake Activity

City Distance Mag. Time & Date
No recent earthquake activity has been reported nearby.
Minimum magnitude displayed is 2.5.

Coastal Water Temperatures

Place Temperature
No Stations Reporting

Nearby Weather Stations